createdAt,value
2018-11-22T00:00:12.583Z,73.38
2018-11-22T00:01:12.325Z,73.38
2018-11-22T00:02:12.342Z,73.38
2018-11-22T00:03:12.358Z,73.38
2018-11-22T00:04:12.371Z,73.76
2018-11-22T00:05:12.392Z,73.76
2018-11-22T00:06:12.688Z,73.76
2018-11-22T00:07:12.432Z,73.76
2018-11-22T00:08:12.722Z,73.48
2018-11-22T00:09:12.458Z,73.48
2018-11-22T00:10:12.484Z,73.48
2018-11-22T00:11:12.758Z,73.48
2018-11-22T00:12:12.510Z,73.38
2018-11-22T00:13:12.534Z,73.38
2018-11-22T00:14:12.555Z,73.38
2018-11-22T00:15:12.560Z,73.48
2018-11-22T00:16:12.858Z,73.67
2018-11-22T00:17:12.606Z,73.76
2018-11-22T00:18:12.618Z,73.76
2018-11-22T00:19:12.635Z,73.86
2018-11-22T00:20:12.648Z,73.86
2018-11-22T00:21:12.672Z,73.67
2018-11-22T00:22:12.947Z,73.67
2018-11-22T00:23:12.965Z,73.48
2018-11-22T00:24:12.720Z,73.48
2018-11-22T00:25:13.000Z,73.67
2018-11-22T00:26:13.043Z,73.67
2018-11-22T00:27:13.057Z,73.57
2018-11-22T00:28:13.064Z,73.48
2018-11-22T00:29:12.804Z,73.67
2018-11-22T00:30:13.086Z,73.76
2018-11-22T00:31:13.102Z,73.67
2018-11-22T00:32:13.137Z,73.76
2018-11-22T00:33:12.876Z,73.48
2018-11-22T00:34:13.155Z,73.57
2018-11-22T00:35:12.904Z,73.48
2018-11-22T00:36:12.921Z,73.57
2018-11-22T00:37:13.201Z,73.57
2018-11-22T00:38:13.221Z,73.57
2018-11-22T00:39:12.975Z,73.48
2018-11-22T00:40:13.002Z,73.67
2018-11-22T00:41:13.275Z,73.57
2018-11-22T00:42:13.026Z,73.57
2018-11-22T00:43:13.307Z,73.76
2018-11-22T00:44:13.057Z,73.67
2018-11-22T00:45:13.074Z,73.76
2018-11-22T00:46:13.366Z,73.57
2018-11-22T00:47:13.110Z,73.48
2018-11-22T00:48:13.174Z,73.38
2018-11-22T00:49:13.415Z,73.29
2018-11-22T00:50:13.164Z,73.67
2018-11-22T00:51:13.447Z,73.48
2018-11-22T00:52:13.197Z,73.48
2018-11-22T00:53:13.218Z,73.48
2018-11-22T00:54:13.229Z,73.48
2018-11-22T00:55:13.246Z,73.38
2018-11-22T00:56:13.268Z,73.57
2018-11-22T00:57:13.288Z,73.57
2018-11-22T00:58:13.563Z,73.76
2018-11-22T00:59:13.580Z,73.76
2018-11-22T01:00:13.610Z,73.76
2018-11-22T01:01:13.348Z,73.67
2018-11-22T01:02:13.366Z,73.76
2018-11-22T01:03:13.650Z,73.67
2018-11-22T01:04:13.667Z,73.19
2018-11-22T01:05:13.418Z,73.67
2018-11-22T01:06:13.700Z,73.86
2018-11-22T01:07:13.714Z,73.57
2018-11-22T01:08:13.733Z,73.57
2018-11-22T01:09:13.486Z,73.76
2018-11-22T01:10:13.501Z,73.76
2018-11-22T01:11:13.790Z,73.76
2018-11-22T01:12:13.807Z,73.48
2018-11-22T01:13:13.821Z,73.38
2018-11-22T01:14:13.582Z,73.38
2018-11-22T01:15:13.589Z,73.48
2018-11-22T01:16:13.875Z,73.48
2018-11-22T01:17:13.628Z,73.48
2018-11-22T01:18:13.645Z,73.48
2018-11-22T01:19:13.657Z,73.48
2018-11-22T01:20:13.671Z,73.86
2018-11-22T01:21:13.692Z,73.38
2018-11-22T01:22:13.705Z,73.67
2018-11-22T01:23:13.991Z,73.29
2018-11-22T01:24:14.007Z,73.76
2018-11-22T01:25:13.762Z,73.67
2018-11-22T01:26:13.778Z,73.67
2018-11-22T01:27:14.060Z,73.67
2018-11-22T01:28:14.075Z,73.57
2018-11-22T01:29:13.830Z,73.57
2018-11-22T01:30:13.843Z,73.67
2018-11-22T01:31:13.863Z,73.76
2018-11-22T01:32:13.881Z,73.67
2018-11-22T01:33:14.160Z,73.48
2018-11-22T01:34:13.912Z,73.76
2018-11-22T01:35:14.196Z,73.57
2018-11-22T01:36:14.218Z,73.76
2018-11-22T01:37:13.965Z,73.29
2018-11-22T01:38:14.245Z,73.67
2018-11-22T01:39:14.264Z,73.67
2018-11-22T01:40:14.292Z,73.29
2018-11-22T01:41:14.035Z,73.1
2018-11-22T01:42:14.317Z,73.29
2018-11-22T01:43:14.328Z,73.29
2018-11-22T01:44:14.083Z,73.67
2018-11-22T01:45:14.112Z,73.29
2018-11-22T01:46:14.126Z,73.19
2018-11-22T01:47:14.133Z,73.76
2018-11-22T01:48:14.157Z,73.19
2018-11-22T01:49:14.175Z,73.67
2018-11-22T01:50:14.450Z,73.29
2018-11-22T01:51:14.468Z,73.19
2018-11-22T01:52:14.217Z,73.67
2018-11-22T01:53:14.238Z,73.1
2018-11-22T01:54:14.521Z,73.76
2018-11-22T01:55:14.546Z,73.38
2018-11-22T01:56:14.289Z,73.76
2018-11-22T01:57:14.314Z,73.76
2018-11-22T01:58:14.329Z,73.76
2018-11-22T01:59:14.608Z,73.67
2018-11-22T02:00:14.357Z,73.86
2018-11-22T02:01:14.375Z,73.38
2018-11-22T02:02:14.658Z,73.67
2018-11-22T02:03:14.685Z,73.48
2018-11-22T02:04:14.426Z,73.57
2018-11-22T02:05:14.704Z,73.57
2018-11-22T02:06:14.468Z,73.86
2018-11-22T02:07:14.484Z,73.48
2018-11-22T02:08:14.505Z,73.48
2018-11-22T02:09:14.777Z,73.96
2018-11-22T02:10:14.530Z,73.38
2018-11-22T02:11:14.545Z,73.57
2018-11-22T02:12:14.562Z,73.48
2018-11-22T02:13:14.844Z,73.19
2018-11-22T02:14:14.869Z,73.96
2018-11-22T02:15:14.878Z,73.38
2018-11-22T02:16:14.639Z,73.96
2018-11-22T02:17:14.649Z,73.86
2018-11-22T02:18:14.666Z,73.96
2018-11-22T02:19:14.696Z,73.38
2018-11-22T02:20:14.965Z,73.38
2018-11-22T02:21:14.719Z,73.48
2018-11-22T02:22:15.000Z,73.38
2018-11-22T02:23:14.748Z,73.67
2018-11-22T02:24:15.035Z,73.19
2018-11-22T02:25:14.784Z,73.19
2018-11-22T02:26:15.066Z,73.48
2018-11-22T02:27:15.094Z,73.48
2018-11-22T02:28:14.835Z,73.57
2018-11-22T02:29:14.860Z,73.48
2018-11-22T02:30:14.882Z,73.38
2018-11-22T02:31:14.887Z,73.57
2018-11-22T02:32:15.179Z,73.48
2018-11-22T02:33:15.199Z,74.05
2018-11-22T02:34:14.935Z,74.05
2018-11-22T02:35:15.227Z,73.29
2018-11-22T02:36:14.974Z,73.29
2018-11-22T02:37:15.013Z,73.48
2018-11-22T02:38:15.284Z,73.48
2018-11-22T02:39:15.304Z,73.38
2018-11-22T02:40:15.051Z,73.38
2018-11-22T02:41:15.064Z,73.48
2018-11-22T02:42:15.353Z,73.48
2018-11-22T02:43:15.093Z,73.48
2018-11-22T02:44:15.371Z,73.67
2018-11-22T02:45:15.390Z,73.38
2018-11-22T02:46:15.143Z,73.86
2018-11-22T02:47:15.164Z,73.38
2018-11-22T02:48:15.451Z,73.48
2018-11-22T02:49:15.201Z,73.48
2018-11-22T02:50:15.479Z,73.67
2018-11-22T02:51:15.493Z,73.96
2018-11-22T02:52:15.250Z,73.76
2018-11-22T02:53:15.526Z,73.48
2018-11-22T02:54:15.547Z,73.48
2018-11-22T02:55:15.299Z,73.48
2018-11-22T02:56:15.324Z,73.57
2018-11-22T02:57:15.597Z,73.38
2018-11-22T02:58:15.350Z,73.48
2018-11-22T02:59:15.627Z,73.57
2018-11-22T03:00:15.650Z,73.48
2018-11-22T03:01:15.397Z,73.48
2018-11-22T03:02:15.416Z,73.67
2018-11-22T03:03:15.709Z,73.48
2018-11-22T03:04:15.448Z,73.29
2018-11-22T03:05:15.475Z,73.57
2018-11-22T03:06:15.747Z,73.48
2018-11-22T03:07:15.501Z,73.48
2018-11-22T03:08:15.519Z,73.38
2018-11-22T03:09:15.541Z,73.86
2018-11-22T03:10:15.554Z,73.67
2018-11-22T03:11:15.836Z,73.96
2018-11-22T03:12:15.852Z,73.96
2018-11-22T03:13:15.884Z,73.67
2018-11-22T03:14:15.619Z,73.38
2018-11-22T03:15:15.911Z,73.48
2018-11-22T03:16:15.650Z,73.29
2018-11-22T03:17:15.672Z,73.38
2018-11-22T03:18:15.759Z,73.48
2018-11-22T03:19:15.967Z,73.48
2018-11-22T03:20:15.722Z,73.48
2018-11-22T03:21:16.006Z,73.48
2018-11-22T03:22:15.756Z,73.48
2018-11-22T03:23:16.045Z,73.48
2018-11-22T03:24:16.058Z,73.57
2018-11-22T03:25:16.073Z,73.67
2018-11-22T03:26:15.824Z,73.48
2018-11-22T03:27:15.841Z,73.29
2018-11-22T03:28:15.857Z,73.48
2018-11-22T03:29:16.139Z,73.48
2018-11-22T03:30:16.178Z,73.76
2018-11-22T03:31:16.183Z,73.76
2018-11-22T03:32:16.201Z,73.38
2018-11-22T03:33:15.941Z,73.76
2018-11-22T03:34:15.961Z,73.67
2018-11-22T03:35:15.984Z,73.76
2018-11-22T03:36:15.993Z,73.67
2018-11-22T03:37:16.275Z,73.57
2018-11-22T03:38:16.307Z,73.57
2018-11-22T03:39:16.064Z,73.29
2018-11-22T03:40:16.333Z,73.67
2018-11-22T03:41:16.349Z,73.76
2018-11-22T03:42:16.105Z,73.76
2018-11-22T03:43:16.121Z,73.19
2018-11-22T03:44:16.396Z,73.57
2018-11-22T03:45:16.427Z,73.44
2018-11-22T03:46:16.162Z,73.29
2018-11-22T03:47:16.445Z,73.1
2018-11-22T03:48:16.477Z,73.19
2018-11-22T03:49:16.217Z,73.29
2018-11-22T03:50:16.504Z,73.67
2018-11-22T03:51:16.530Z,73.48
2018-11-22T03:52:16.271Z,73.67
2018-11-22T03:53:16.561Z,73.29
2018-11-22T03:54:16.578Z,73.67
2018-11-22T03:55:16.317Z,73.76
2018-11-22T03:56:16.600Z,73.76
2018-11-22T03:57:16.349Z,73.29
2018-11-22T03:58:16.379Z,73.1
2018-11-22T03:59:16.660Z,73.57
2018-11-22T04:00:16.670Z,73.67
2018-11-22T04:01:16.423Z,73.76
2018-11-22T04:02:16.706Z,73.76
2018-11-22T04:03:16.457Z,73.07
2018-11-22T04:04:16.470Z,73.57
2018-11-22T04:05:16.756Z,73.67
2018-11-22T04:06:16.775Z,73.76
2018-11-22T04:07:16.534Z,73.57
2018-11-22T04:08:16.808Z,73.48
2018-11-22T04:09:16.834Z,73.1
2018-11-22T04:10:16.847Z,73.57
2018-11-22T04:11:16.860Z,73.57
2018-11-22T04:12:16.607Z,73.57
2018-11-22T04:13:16.888Z,73.76
2018-11-22T04:14:16.924Z,73.76
2018-11-22T04:15:16.659Z,73.19
2018-11-22T04:16:16.672Z,73.48
2018-11-22T04:17:16.968Z,73.57
2018-11-22T04:18:16.979Z,73.48
2018-11-22T04:19:16.727Z,73.57
2018-11-22T04:20:17.027Z,73.67
2018-11-22T04:21:17.030Z,73.29
2018-11-22T04:22:17.054Z,73.19
2018-11-22T04:23:17.057Z,73
2018-11-22T04:24:16.808Z,73.19
2018-11-22T04:25:16.837Z,73.19
2018-11-22T04:26:16.923Z,73.1
2018-11-22T04:27:16.858Z,73.1
2018-11-22T04:28:17.144Z,73.1
2018-11-22T04:29:16.901Z,73.19
2018-11-22T04:30:17.180Z,73.57
2018-11-22T04:31:16.930Z,73.19
2018-11-22T04:32:16.946Z,73.19
2018-11-22T04:33:17.232Z,73.29
2018-11-22T04:34:16.979Z,73.19
2018-11-22T04:35:17.271Z,73.19
2018-11-22T04:36:17.021Z,73
2018-11-22T04:37:17.295Z,73.25
2018-11-22T04:38:17.046Z,73.38
2018-11-22T04:39:17.068Z,73.1
2018-11-22T04:40:17.090Z,73.1
2018-11-22T04:41:17.106Z,73.1
2018-11-22T04:42:17.121Z,73.19
2018-11-22T04:43:17.399Z,73.19
2018-11-22T04:44:17.428Z,73
2018-11-22T04:45:17.177Z,73
2018-11-22T04:46:17.186Z,73.1
2018-11-22T04:47:17.200Z,73.19
2018-11-22T04:48:17.214Z,73.19
2018-11-22T04:49:17.243Z,73.19
2018-11-22T04:50:17.250Z,73.1
2018-11-22T04:51:17.267Z,73
2018-11-22T04:52:17.556Z,73.29
2018-11-22T04:53:17.298Z,73
2018-11-22T04:54:17.581Z,73.19
2018-11-22T04:55:17.345Z,73.19
2018-11-22T04:56:17.616Z,73.1
2018-11-22T04:57:17.632Z,73.29
2018-11-22T04:58:17.382Z,73.29
2018-11-22T04:59:17.408Z,73.29
2018-11-22T05:00:17.690Z,73.29
2018-11-22T05:01:17.441Z,73.1
2018-11-22T05:02:17.720Z,73.38
2018-11-22T05:03:17.469Z,73.19
2018-11-22T05:04:17.761Z,73.19
2018-11-22T05:05:17.501Z,73.19
2018-11-22T05:06:17.790Z,73
2018-11-22T05:07:17.543Z,73.19
2018-11-22T05:08:17.560Z,73.29
2018-11-22T05:09:17.579Z,73.1
2018-11-22T05:10:17.850Z,73.29
2018-11-22T05:11:17.603Z,73.19
2018-11-22T05:12:17.885Z,73.29
2018-11-22T05:13:17.906Z,73.38
2018-11-22T05:14:17.654Z,73.19
2018-11-22T05:15:17.937Z,73.29
2018-11-22T05:16:17.686Z,73.29
2018-11-22T05:17:17.712Z,73.1
2018-11-22T05:18:17.725Z,73.29
2018-11-22T05:19:17.751Z,73.19
2018-11-22T05:20:18.032Z,73.57
2018-11-22T05:21:17.774Z,73.48
2018-11-22T05:22:18.058Z,73.67
2018-11-22T05:23:17.807Z,73.19
2018-11-22T05:24:17.824Z,73.1
2018-11-22T05:25:18.126Z,73.29
2018-11-22T05:26:18.127Z,73.29
2018-11-22T05:27:17.879Z,73.29
2018-11-22T05:28:18.161Z,73.57
2018-11-22T05:29:17.914Z,73.1
2018-11-22T05:30:18.192Z,73.29
2018-11-22T05:31:17.944Z,73.1
2018-11-22T05:32:18.222Z,73.1
2018-11-22T05:33:17.973Z,73.1
2018-11-22T05:34:18.273Z,73.38
2018-11-22T05:35:18.009Z,73.19
2018-11-22T05:36:18.025Z,73.29
2018-11-22T05:37:18.046Z,73.29
2018-11-22T05:38:18.059Z,73.29
2018-11-22T05:39:18.353Z,73.29
2018-11-22T05:40:18.100Z,73.29
2018-11-22T05:41:18.108Z,73
2018-11-22T05:42:18.126Z,73.67
2018-11-22T05:43:18.421Z,73.07
2018-11-22T05:44:18.170Z,73.29
2018-11-22T05:45:18.449Z,73.19
2018-11-22T05:46:18.193Z,73.1
2018-11-22T05:47:18.474Z,73.29
2018-11-22T05:48:18.232Z,73.1
2018-11-22T05:49:18.520Z,73.19
2018-11-22T05:50:18.534Z,73
2018-11-22T05:51:18.290Z,73.1
2018-11-22T05:52:18.562Z,73.1
2018-11-22T05:53:18.314Z,73.29
2018-11-22T05:54:18.598Z,73
2018-11-22T05:55:18.349Z,73.19
2018-11-22T05:56:18.365Z,73.1
2018-11-22T05:57:18.650Z,73.1
2018-11-22T05:58:18.408Z,73.1
2018-11-22T05:59:18.683Z,73
2018-11-22T06:00:18.432Z,72.91
2018-11-22T06:01:18.457Z,73
2018-11-22T06:02:18.732Z,72.91
2018-11-22T06:03:18.487Z,72.91
2018-11-22T06:04:18.513Z,73
2018-11-22T06:05:18.523Z,73
2018-11-22T06:06:18.800Z,73
2018-11-22T06:07:18.556Z,72.91
2018-11-22T06:08:18.577Z,73
2018-11-22T06:09:18.583Z,73
2018-11-22T06:10:18.601Z,73.1
2018-11-22T06:11:18.886Z,73.1
2018-11-22T06:12:18.637Z,73.1
2018-11-22T06:13:18.674Z,73.19
2018-11-22T06:14:18.677Z,72.91
2018-11-22T06:15:18.688Z,73.1
2018-11-22T06:16:18.703Z,73.1
2018-11-22T06:17:18.726Z,73.19
2018-11-22T06:18:18.746Z,73.1
2018-11-22T06:19:18.756Z,73.19
2018-11-22T06:20:18.774Z,73.19
2018-11-22T06:21:19.055Z,73
2018-11-22T06:22:18.804Z,72.91
2018-11-22T06:23:19.093Z,73.1
2018-11-22T06:24:19.102Z,73.1
2018-11-22T06:25:18.857Z,73
2018-11-22T06:26:19.141Z,73.1
2018-11-22T06:27:18.896Z,73.1
2018-11-22T06:28:19.175Z,73.1
2018-11-22T06:29:19.198Z,73
2018-11-22T06:30:19.208Z,73.1
2018-11-22T06:31:19.223Z,73.1
2018-11-22T06:32:18.971Z,72.91
2018-11-22T06:33:19.260Z,73
2018-11-22T06:34:19.007Z,72.91
2018-11-22T06:35:19.029Z,73
2018-11-22T06:36:19.323Z,73.1
2018-11-22T06:37:19.064Z,73.1
2018-11-22T06:38:19.337Z,73.1
2018-11-22T06:39:19.093Z,73
2018-11-22T06:40:19.377Z,72.81
2018-11-22T06:41:19.134Z,72.81
2018-11-22T06:42:19.143Z,72.81
2018-11-22T06:43:19.426Z,72.91
2018-11-22T06:44:19.184Z,73.1
2018-11-22T06:45:19.204Z,73.1
2018-11-22T06:46:19.208Z,73.29
2018-11-22T06:47:19.493Z,72.72
2018-11-22T06:48:19.522Z,72.81
2018-11-22T06:49:19.273Z,72.81
2018-11-22T06:50:19.543Z,72.81
2018-11-22T06:51:19.294Z,72.81
2018-11-22T06:52:19.580Z,73.1
2018-11-22T06:53:19.327Z,73.1
2018-11-22T06:54:19.621Z,72.81
2018-11-22T06:55:19.628Z,73.29
2018-11-22T06:56:19.379Z,72.81
2018-11-22T06:57:19.397Z,73.25
2018-11-22T06:58:19.418Z,73.1
2018-11-22T06:59:19.443Z,73
2018-11-22T07:00:19.737Z,73.19
2018-11-22T07:01:19.466Z,73.19
2018-11-22T07:02:19.483Z,73.1
2018-11-22T07:03:19.499Z,73
2018-11-22T07:04:19.528Z,73.19
2018-11-22T07:05:19.535Z,73.1
2018-11-22T07:06:19.556Z,73.16
2018-11-22T07:07:19.834Z,73.38
2018-11-22T07:08:19.590Z,73.19
2018-11-22T07:09:19.868Z,73.19
2018-11-22T07:10:19.898Z,73.29
2018-11-22T07:11:19.898Z,73.19
2018-11-22T07:12:19.650Z,73.1
2018-11-22T07:13:19.669Z,73.1
2018-11-22T07:14:19.694Z,73.1
2018-11-22T07:15:19.701Z,73.1
2018-11-22T07:16:19.719Z,73
2018-11-22T07:17:20.011Z,73.07
2018-11-22T07:18:19.753Z,73
2018-11-22T07:19:19.767Z,73.1
2018-11-22T07:20:19.787Z,73.1
2018-11-22T07:21:20.072Z,73.1
2018-11-22T07:22:19.824Z,73.1
2018-11-22T07:23:19.838Z,73.19
2018-11-22T07:24:20.126Z,72.81
2018-11-22T07:25:19.872Z,73.1
2018-11-22T07:26:20.155Z,73.16
2018-11-22T07:27:19.907Z,73
2018-11-22T07:28:19.924Z,73.1
2018-11-22T07:29:20.210Z,73
2018-11-22T07:30:19.960Z,73.1
2018-11-22T07:31:20.243Z,72.88
2018-11-22T07:32:19.991Z,73.1
2018-11-22T07:33:20.009Z,73
2018-11-22T07:34:20.024Z,73.1
2018-11-22T07:35:20.042Z,73.1
2018-11-22T07:36:20.063Z,73.29
2018-11-22T07:37:20.074Z,72.91
2018-11-22T07:38:20.358Z,72.91
2018-11-22T07:39:20.385Z,73
2018-11-22T07:40:20.129Z,72.91
2018-11-22T07:41:20.407Z,72.91
2018-11-22T07:42:20.439Z,73
2018-11-22T07:43:20.184Z,73.29
2018-11-22T07:44:20.473Z,72.91
2018-11-22T07:45:20.484Z,73.19
2018-11-22T07:46:20.493Z,72.91
2018-11-22T07:47:20.245Z,72.91
2018-11-22T07:48:20.269Z,73
2018-11-22T07:49:20.284Z,72.91
2018-11-22T07:50:20.303Z,72.72
2018-11-22T07:51:20.577Z,73
2018-11-22T07:52:20.334Z,72.72
2018-11-22T07:53:20.356Z,72.63
2018-11-22T07:54:20.665Z,72.91
2018-11-22T07:55:20.383Z,72.63
2018-11-22T07:56:20.666Z,72.63
2018-11-22T07:57:20.417Z,72.81
2018-11-22T07:58:20.439Z,73
2018-11-22T07:59:20.713Z,73
2018-11-22T08:00:20.742Z,72.91
2018-11-22T08:01:20.748Z,73
2018-11-22T08:02:20.498Z,73.1
2018-11-22T08:03:20.517Z,73
2018-11-22T08:04:20.811Z,72.63
2018-11-22T08:05:20.550Z,72.72
2018-11-22T08:06:20.835Z,72.44
2018-11-22T08:07:20.598Z,72.72
2018-11-22T08:08:20.609Z,72.81
2018-11-22T08:09:20.883Z,72.44
2018-11-22T08:10:20.636Z,72.53
2018-11-22T08:11:20.661Z,72.25
2018-11-22T08:12:25.760Z,72.34
2018-11-22T08:13:20.963Z,72.44
2018-11-22T08:14:20.703Z,72.44
2018-11-22T08:15:20.722Z,72.34
2018-11-22T08:16:20.738Z,72.34
2018-11-22T08:17:21.020Z,72.34
2018-11-22T08:18:20.767Z,72.44
2018-11-22T08:19:21.069Z,72.44
2018-11-22T08:20:20.803Z,72.34
2018-11-22T08:21:21.087Z,72.34
2018-11-22T08:22:21.107Z,72.34
2018-11-22T08:23:20.854Z,72.44
2018-11-22T08:24:20.873Z,72.63
2018-11-22T08:25:21.166Z,72.34
2018-11-22T08:26:20.911Z,72.44
2018-11-22T08:27:21.192Z,72.44
2018-11-22T08:28:21.217Z,72.53
2018-11-22T08:29:21.224Z,72.72
2018-11-22T08:30:21.241Z,71.96
2018-11-22T08:31:21.260Z,72.72
2018-11-22T08:32:21.278Z,72.15
2018-11-22T08:33:21.024Z,72.15
2018-11-22T08:34:21.056Z,72.15
2018-11-22T08:35:21.346Z,72.15
2018-11-22T08:36:21.344Z,72.25
2018-11-22T08:37:21.091Z,72.34
2018-11-22T08:38:21.396Z,71.96
2018-11-22T08:39:21.132Z,72.06
2018-11-22T08:40:21.410Z,72.15
2018-11-22T08:41:21.161Z,72.06
2018-11-22T08:42:21.184Z,72.06
2018-11-22T08:43:21.461Z,72.06
2018-11-22T08:44:21.211Z,72.06
2018-11-22T08:45:21.235Z,72.06
2018-11-22T08:46:21.257Z,71.96
2018-11-22T08:47:21.263Z,72.06
2018-11-22T08:48:21.280Z,72.06
2018-11-22T08:49:21.309Z,72.06
2018-11-22T08:50:21.316Z,72.06
2018-11-22T08:51:21.596Z,72.06
2018-11-22T08:52:21.348Z,72.25
2018-11-22T08:53:21.643Z,71.96
2018-11-22T08:54:21.651Z,72.34
2018-11-22T08:55:21.400Z,72.06
2018-11-22T08:56:21.686Z,71.96
2018-11-22T08:57:21.713Z,71.86
2018-11-22T08:58:21.450Z,71.86
2018-11-22T08:59:21.475Z,72.06
2018-11-22T09:00:21.761Z,72.06
2018-11-22T09:01:21.511Z,71.96
2018-11-22T09:02:21.784Z,71.96
2018-11-22T09:03:21.811Z,72.06
2018-11-22T09:04:21.818Z,71.86
2018-11-22T09:05:21.842Z,72.06
2018-11-22T09:06:21.598Z,72.34
2018-11-22T09:07:21.624Z,72.25
2018-11-22T09:08:21.629Z,72.25
2018-11-22T09:09:21.655Z,72.06
2018-11-22T09:10:21.674Z,72.25
2018-11-22T09:11:21.682Z,71.96
2018-11-22T09:12:21.960Z,72.15
2018-11-22T09:13:21.710Z,72.06
2018-11-22T09:14:21.737Z,72.15
2018-11-22T09:15:22.016Z,71.96
2018-11-22T09:16:21.764Z,71.96
2018-11-22T09:17:22.052Z,71.67
2018-11-22T09:18:22.060Z,72.06
2018-11-22T09:19:21.815Z,72.06
2018-11-22T09:20:21.842Z,71.58
2018-11-22T09:21:22.122Z,72.06
2018-11-22T09:22:21.871Z,71.96
2018-11-22T09:23:22.144Z,72.15
2018-11-22T09:24:26.615Z,72.15
2018-11-22T09:25:21.918Z,72.15
2018-11-22T09:26:22.205Z,72.15
2018-11-22T09:27:22.221Z,72.06
2018-11-22T09:28:21.971Z,72.06
2018-11-22T09:29:21.990Z,72.06
2018-11-22T09:30:22.006Z,71.67
2018-11-22T09:31:22.020Z,71.67
2018-11-22T09:32:22.294Z,71.67
2018-11-22T09:33:22.051Z,71.58
2018-11-22T09:34:22.333Z,71.67
2018-11-22T09:35:22.599Z,71.86
2018-11-22T09:36:22.117Z,71.67
2018-11-22T09:37:22.379Z,71.77
2018-11-22T09:38:22.410Z,71.67
2018-11-22T09:39:22.153Z,71.77
2018-11-22T09:40:22.170Z,72.15
2018-11-22T09:41:22.190Z,71.67
2018-11-22T09:42:22.697Z,71.77
2018-11-22T09:43:22.221Z,71.86
2018-11-22T09:44:22.243Z,71.77
2018-11-22T09:45:22.254Z,71.96
2018-11-22T09:46:22.546Z,71.3
2018-11-22T09:47:22.294Z,71.58
2018-11-22T09:48:22.312Z,71.39
2018-11-22T09:49:22.334Z,71.39
2018-11-22T09:50:22.602Z,71.3
2018-11-22T09:51:22.644Z,71.67
2018-11-22T09:52:22.377Z,71.58
2018-11-22T09:53:22.646Z,71.43
2018-11-22T09:54:22.678Z,71.2
2018-11-22T09:55:22.683Z,71.62
2018-11-22T09:56:22.448Z,71.62
2018-11-22T09:57:22.728Z,71.52
2018-11-22T09:58:22.473Z,71.62
2018-11-22T09:59:22.780Z,71.43
2018-11-22T10:00:22.526Z,71.62
2018-11-22T10:01:22.806Z,71.43
2018-11-22T10:02:22.544Z,71.39
2018-11-22T10:03:22.820Z,71.43
2018-11-22T10:04:22.837Z,71.39
2018-11-22T10:05:23.183Z,71.62
2018-11-22T10:06:22.623Z,71.58
2018-11-22T10:07:22.635Z,71.52
2018-11-22T10:08:22.994Z,71.33
2018-11-22T10:09:23.139Z,71.62
2018-11-22T10:10:22.955Z,71.33
2018-11-22T10:11:22.707Z,71.39
2018-11-22T10:12:22.789Z,71.62
2018-11-22T10:13:22.747Z,71.52
2018-11-22T10:14:23.010Z,71.52
2018-11-22T10:15:22.770Z,71.62
2018-11-22T10:16:22.790Z,71.58
2018-11-22T10:17:22.810Z,71.3
2018-11-22T10:18:22.965Z,71.58
2018-11-22T10:19:22.838Z,71.43
2018-11-22T10:20:23.128Z,71.43
2018-11-22T10:21:23.132Z,71.43
2018-11-22T10:22:23.210Z,71.43
2018-11-22T10:23:23.180Z,71.43
2018-11-22T10:24:23.124Z,71.62
2018-11-22T10:25:23.207Z,71.2
2018-11-22T10:26:23.216Z,71.48
2018-11-22T10:27:23.232Z,71.62
2018-11-22T10:28:23.263Z,71.58
2018-11-22T10:29:23.191Z,71.48
2018-11-22T10:30:23.494Z,71.3
2018-11-22T10:31:23.050Z,71.3
2018-11-22T10:32:23.320Z,71.58
2018-11-22T10:33:23.336Z,71.62
2018-11-22T10:34:23.355Z,71.48
2018-11-22T10:35:23.742Z,71.48
2018-11-22T10:36:23.136Z,71.33
2018-11-22T10:37:23.146Z,71.33
2018-11-22T10:38:23.651Z,71.2
2018-11-22T10:39:23.183Z,71.48
2018-11-22T10:40:23.474Z,71.33
2018-11-22T10:41:23.476Z,71.33
2018-11-22T10:42:23.596Z,71.33
2018-11-22T10:43:23.250Z,71.39
2018-11-22T10:44:23.543Z,71.48
2018-11-22T10:45:23.541Z,71.23
2018-11-22T10:46:23.314Z,71.3
2018-11-22T10:47:23.576Z,71.43
2018-11-22T10:48:23.335Z,71.52
2018-11-22T10:49:23.369Z,71.3
2018-11-22T10:50:23.381Z,71.39
2018-11-22T10:51:23.648Z,71.39
2018-11-22T10:52:23.403Z,71.2
2018-11-22T10:53:23.422Z,71.9
2018-11-22T10:54:23.446Z,71.67
2018-11-22T10:55:23.453Z,71.39
2018-11-22T10:56:23.473Z,72
2018-11-22T10:57:23.488Z,71.96
2018-11-22T10:58:23.766Z,71.86
2018-11-22T10:59:23.787Z,71.86
2018-11-22T11:00:23.544Z,71.58
2018-11-22T11:01:23.563Z,71.58
2018-11-22T11:02:24.285Z,71.67
2018-11-22T11:03:23.935Z,71.77
2018-11-22T11:04:23.934Z,71.67
2018-11-22T11:05:23.627Z,71.96
2018-11-22T11:06:23.644Z,71.71
2018-11-22T11:07:23.662Z,71.67
2018-11-22T11:08:23.676Z,71.77
2018-11-22T11:09:23.967Z,71.77
2018-11-22T11:10:23.711Z,72.15
2018-11-22T11:11:23.731Z,71.77
2018-11-22T11:12:28.025Z,71.67
2018-11-22T11:13:23.765Z,72.25
2018-11-22T11:14:23.782Z,71.77
2018-11-22T11:15:24.055Z,71.77
2018-11-22T11:16:24.085Z,72.06
2018-11-22T11:17:23.845Z,71.67
2018-11-22T11:18:23.851Z,71.67
2018-11-22T11:19:24.125Z,71.77
2018-11-22T11:20:23.881Z,72.06
2018-11-22T11:21:24.196Z,72.06
2018-11-22T11:22:23.925Z,72.06
2018-11-22T11:23:24.194Z,71.96
2018-11-22T11:24:24.390Z,72.34
2018-11-22T11:25:24.228Z,71.96
2018-11-22T11:26:24.299Z,71.86
2018-11-22T11:27:24.260Z,71.86
2018-11-22T11:28:24.280Z,71.86
2018-11-22T11:29:24.301Z,71.86
2018-11-22T11:30:24.328Z,71.96
2018-11-22T11:31:24.071Z,71.86
2018-11-22T11:32:24.352Z,71.96
2018-11-22T11:33:24.362Z,72.06
2018-11-22T11:34:24.396Z,71.86
2018-11-22T11:35:24.138Z,72.06
2018-11-22T11:36:24.166Z,71.86
2018-11-22T11:37:24.434Z,72.15
2018-11-22T11:38:24.187Z,71.96
2018-11-22T11:39:24.207Z,72.15
2018-11-22T11:40:24.483Z,71.77
2018-11-22T11:41:24.254Z,71.86
2018-11-22T11:42:24.515Z,71.86
2018-11-22T11:43:24.534Z,71.96
2018-11-22T11:44:24.296Z,71.86
2018-11-22T11:45:24.309Z,71.86
2018-11-22T11:46:24.762Z,71.96
2018-11-22T11:47:24.603Z,71.86
2018-11-22T11:48:24.368Z,72.06
2018-11-22T11:49:24.379Z,71.96
2018-11-22T11:50:24.398Z,71.96
2018-11-22T11:51:24.435Z,72.06
2018-11-22T11:52:24.428Z,71.86
2018-11-22T11:53:43.421Z,72.15
2018-11-22T11:54:24.475Z,72.06
2018-11-22T11:55:24.479Z,71.86
2018-11-22T11:56:24.760Z,72.06
2018-11-22T11:57:24.784Z,72.15
2018-11-22T11:58:24.803Z,72.25
2018-11-22T11:59:24.556Z,72.06
2018-11-22T12:00:24.829Z,71.9
2018-11-22T12:01:24.857Z,72.34
2018-11-22T12:02:24.600Z,71.86
2018-11-22T12:03:24.875Z,72.06
2018-11-22T12:04:24.906Z,71.86
2018-11-22T12:05:24.710Z,71.86
2018-11-22T12:06:24.925Z,71.96
2018-11-22T12:07:24.685Z,71.86
2018-11-22T12:08:24.714Z,72.15
2018-11-22T12:09:24.978Z,71.9
2018-11-22T12:10:24.736Z,71.86
2018-11-22T12:11:24.752Z,71.96
2018-11-22T12:12:25.036Z,72.15
2018-11-22T12:13:24.792Z,72.15
2018-11-22T12:14:24.804Z,71.86
2018-11-22T12:15:25.096Z,71.9
2018-11-22T12:16:25.101Z,71.9
2018-11-22T12:17:24.856Z,71.96
2018-11-22T12:18:24.875Z,71.86
2018-11-22T12:19:24.898Z,72
2018-11-22T12:20:25.166Z,71.77
2018-11-22T12:21:25.181Z,71.9
2018-11-22T12:22:25.197Z,71.9
2018-11-22T12:23:24.962Z,72.09
2018-11-22T12:24:24.980Z,72.09
2018-11-22T12:25:25.337Z,72
2018-11-22T12:26:25.275Z,72.06
2018-11-22T12:27:25.292Z,72.09
2018-11-22T12:28:25.305Z,72.09
2018-11-22T12:29:25.063Z,71.9
2018-11-22T12:30:25.081Z,72.09
2018-11-22T12:31:25.108Z,72.19
2018-11-22T12:32:25.128Z,71.9
2018-11-22T12:33:25.145Z,72.25
2018-11-22T12:34:25.415Z,72.09
2018-11-22T12:35:25.272Z,72.09
2018-11-22T12:36:25.186Z,72.09
2018-11-22T12:37:25.208Z,72.28
2018-11-22T12:38:25.475Z,72.09
2018-11-22T12:39:25.501Z,71.96
2018-11-22T12:40:25.525Z,72.06
2018-11-22T12:41:25.274Z,72.19
2018-11-22T12:42:25.543Z,71.81
2018-11-22T12:43:25.305Z,71.9
2018-11-22T12:44:25.320Z,72.15
2018-11-22T12:45:25.343Z,72.09
2018-11-22T12:46:25.357Z,72.25
2018-11-22T12:47:25.383Z,72.19
2018-11-22T12:48:25.656Z,72
2018-11-22T12:49:25.666Z,72
2018-11-22T12:50:25.681Z,71.86
2018-11-22T12:51:25.446Z,71.9
2018-11-22T12:52:25.718Z,71.81
2018-11-22T12:53:25.730Z,72
2018-11-22T12:54:25.496Z,72
2018-11-22T12:55:25.507Z,72
2018-11-22T12:56:25.534Z,72
2018-11-22T12:57:25.549Z,71.86
2018-11-22T12:58:25.818Z,71.9
2018-11-22T12:59:25.578Z,72.09
2018-11-22T13:00:25.600Z,71.71